Time;durP1;ratioP1;P1;durP2;ratioP2;P2;SDS_P1;SDS_P2;PMS_P1;PMS_P2;Temp;Humidity;BMP_temperature;BMP_pressure;BME280_temperature;BME280_humidity;BME280_pressure;Samples;Min_cycle;Max_cycle;Signal;HPM_P1;HPM_P2
2023/08/04 00:00:46;;;;;;;11.00;4.40;;;;;;;;;;5043332;28;20544;-78
2023/08/04 00:03:13;;;;;;;15.33;5.40;;;;;;;;;;5056183;28;20560;-78
2023/08/04 00:05:41;;;;;;;9.60;4.33;;;;;;;;;;5061752;28;20496;-78
2023/08/04 00:08:08;;;;;;;10.83;4.43;;;;;;;;;;5059688;28;20453;-77
2023/08/04 00:10:36;;;;;;;10.53;4.73;;;;;;;;;;5063888;28;20453;-79
2023/08/04 00:13:04;;;;;;;8.70;4.00;;;;;;;;;;5061602;28;20580;-79
2023/08/04 00:15:32;;;;;;;10.40;4.27;;;;;;;;;;5061897;28;20462;-79
2023/08/04 00:17:59;;;;;;;7.00;4.20;;;;;;;;;;5060109;28;20869;-79
2023/08/04 00:20:27;;;;;;;10.73;4.40;;;;;;;;;;5062948;28;20456;-79
2023/08/04 00:22:54;;;;;;;10.17;4.70;;;;;;;;;;5062043;28;20858;-79
2023/08/04 00:25:25;;;;;;;6.27;4.00;;;;;;;;;;5062273;28;20473;-78
2023/08/04 00:27:52;;;;;;;9.20;4.70;;;;;;;;;;5064338;28;20783;-79
2023/08/04 00:30:21;;;;;;;8.00;3.90;;;;;;;;;;5067127;28;20467;-79
2023/08/04 00:32:48;;;;;;;7.83;4.90;;;;;;;;;;5067262;28;20457;-79
2023/08/04 00:35:16;;;;;;;8.83;4.37;;;;;;;;;;5067916;28;20453;-79
2023/08/04 00:37:44;;;;;;;10.27;5.00;;;;;;;;;;5069828;28;20500;-79
2023/08/04 00:40:18;;;;;;;10.57;5.00;;;;;;;;;;5070645;28;20457;-79
2023/08/04 00:42:46;;;;;;;9.43;3.70;;;;;;;;;;5071352;28;20459;-79
2023/08/04 00:45:16;;;;;;;7.03;3.60;;;;;;;;;;5075318;28;20476;-80
2023/08/04 00:47:45;;;;;;;11.40;4.30;;;;;;;;;;5076427;28;20461;-79
2023/08/04 00:50:17;;;;;;;12.40;4.60;;;;;;;;;;5075456;28;20520;-80
2023/08/04 00:52:45;;;;;;;10.83;4.00;;;;;;;;;;5071411;28;20457;-79
2023/08/04 00:55:14;;;;;;;5.40;3.50;;;;;;;;;;5077143;28;20542;-79
2023/08/04 00:57:42;;;;;;;7.87;4.10;;;;;;;;;;5080929;28;20456;-79
2023/08/04 01:00:16;;;;;;;4.80;3.50;;;;;;;;;;5080821;28;20984;-78
2023/08/04 01:02:44;;;;;;;6.77;3.63;;;;;;;;;;5081116;28;20492;-79
2023/08/04 01:05:12;;;;;;;10.80;3.60;;;;;;;;;;5081104;28;20527;-78
2023/08/04 01:07:44;;;;;;;7.27;3.90;;;;;;;;;;5078604;28;20518;-78
2023/08/04 01:10:20;;;;;;;8.63;3.63;;;;;;;;;;5079912;28;20455;-78
2023/08/04 01:12:52;;;;;;;6.97;4.10;;;;;;;;;;5080620;28;20452;-79
2023/08/04 01:15:19;;;;;;;12.13;4.03;;;;;;;;;;5080841;28;20448;-79
2023/08/04 01:17:48;;;;;;;8.60;4.00;;;;;;;;;;5080463;28;20847;-79
2023/08/04 01:20:19;;;;;;;7.13;3.90;;;;;;;;;;5079256;28;20531;-78
2023/08/04 01:22:48;;;;;;;7.03;3.90;;;;;;;;;;5080081;28;20460;-78
2023/08/04 01:25:15;;;;;;;7.10;4.47;;;;;;;;;;5078980;28;20467;-78
2023/08/04 01:27:44;;;;;;;6.20;3.53;;;;;;;;;;5082282;28;20468;-78
2023/08/04 01:30:16;;;;;;;9.17;4.00;;;;;;;;;;5080859;28;20448;-79
2023/08/04 01:32:43;;;;;;;8.90;3.27;;;;;;;;;;5083289;28;20488;-79
2023/08/04 01:35:11;;;;;;;22.23;4.13;;;;;;;;;;5081681;28;20531;-78
2023/08/04 01:37:39;;;;;;;6.83;4.40;;;;;;;;;;5081042;28;20713;-79
2023/08/04 01:40:09;;;;;;;9.77;3.50;;;;;;;;;;5081349;28;20449;-79
2023/08/04 01:42:36;;;;;;;7.67;3.30;;;;;;;;;;5078597;28;20543;-79
2023/08/04 01:45:05;;;;;;;8.60;4.60;;;;;;;;;;5079446;28;20456;-79
2023/08/04 01:47:33;;;;;;;11.67;4.77;;;;;;;;;;5077567;28;20511;-79
2023/08/04 01:50:08;;;;;;;9.30;5.27;;;;;;;;;;5079866;28;20451;-77
2023/08/04 01:52:35;;;;;;;10.13;4.30;;;;;;;;;;5080127;28;20470;-79
2023/08/04 01:55:03;;;;;;;9.33;3.90;;;;;;;;;;5078795;28;20553;-79
2023/08/04 01:57:31;;;;;;;13.13;3.70;;;;;;;;;;5075035;28;20485;-79
2023/08/04 01:59:59;;;;;;;8.40;5.57;;;;;;;;;;5076440;28;20457;-78
2023/08/04 02:02:26;;;;;;;7.63;4.30;;;;;;;;;;5078021;28;20642;-79
2023/08/04 02:04:54;;;;;;;8.53;4.10;;;;;;;;;;5079454;28;20468;-79
2023/08/04 02:07:22;;;;;;;10.83;3.30;;;;;;;;;;5077705;28;20492;-79
2023/08/04 02:09:50;;;;;;;8.47;4.10;;;;;;;;;;5079702;28;20445;-79
2023/08/04 02:12:17;;;;;;;8.77;3.83;;;;;;;;;;5077633;28;20464;-78
2023/08/04 02:14:46;;;;;;;8.87;3.80;;;;;;;;;;5076100;28;21023;-78
2023/08/04 02:17:15;;;;;;;12.60;5.10;;;;;;;;;;5078163;28;20487;-79
2023/08/04 02:19:43;;;;;;;8.97;5.00;;;;;;;;;;5074647;28;20542;-78
2023/08/04 02:22:11;;;;;;;12.53;4.17;;;;;;;;;;5079174;28;20539;-79
2023/08/04 02:24:38;;;;;;;13.20;4.97;;;;;;;;;;5080074;28;20468;-79
2023/08/04 02:27:06;;;;;;;10.43;4.07;;;;;;;;;;5081790;28;20522;-79
2023/08/04 02:29:33;;;;;;;7.93;4.00;;;;;;;;;;5076417;28;20515;-78
2023/08/04 02:32:02;;;;;;;9.93;4.33;;;;;;;;;;5080296;28;20507;-79
2023/08/04 02:34:30;;;;;;;6.57;4.30;;;;;;;;;;5077278;28;20842;-79
2023/08/04 02:36:57;;;;;;;12.00;4.53;;;;;;;;;;5071509;28;20448;-79
2023/08/04 02:39:25;;;;;;;7.53;4.00;;;;;;;;;;5075334;28;20480;-78
2023/08/04 02:41:53;;;;;;;7.93;4.53;;;;;;;;;;5075542;28;20496;-78
2023/08/04 02:44:20;;;;;;;6.57;3.83;;;;;;;;;;5074788;28;20538;-78
2023/08/04 02:46:48;;;;;;;10.93;5.27;;;;;;;;;;5075618;28;20456;-79
2023/08/04 02:49:17;;;;;;;11.17;4.10;;;;;;;;;;5073871;28;20460;-78
2023/08/04 02:51:44;;;;;;;8.97;4.77;;;;;;;;;;5076923;28;20469;-78
2023/08/04 02:54:12;;;;;;;12.37;3.80;;;;;;;;;;5076226;28;20497;-78
2023/08/04 02:56:39;;;;;;;11.87;4.10;;;;;;;;;;5074973;28;20457;-78
2023/08/04 02:59:07;;;;;;;5.23;3.33;;;;;;;;;;5082232;28;20464;-79
2023/08/04 03:01:34;;;;;;;8.23;4.40;;;;;;;;;;5081494;28;20467;-79
2023/08/04 03:04:02;;;;;;;7.90;3.40;;;;;;;;;;5081941;28;20440;-79
2023/08/04 03:06:30;;;;;;;8.60;3.60;;;;;;;;;;5080966;28;20495;-79
2023/08/04 03:08:58;;;;;;;7.67;3.40;;;;;;;;;;5076615;28;20500;-79
2023/08/04 03:11:26;;;;;;;7.73;3.83;;;;;;;;;;5080904;28;20487;-78
2023/08/04 03:13:53;;;;;;;10.33;3.90;;;;;;;;;;5076202;28;20535;-78
2023/08/04 03:16:19;;;;;;;6.50;4.30;;;;;;;;;;5078874;28;20476;-78
2023/08/04 03:18:47;;;;;;;7.40;3.93;;;;;;;;;;5074150;28;20551;-78
2023/08/04 03:21:14;;;;;;;10.37;4.33;;;;;;;;;;5075339;28;20485;-79
2023/08/04 03:23:43;;;;;;;13.03;4.00;;;;;;;;;;5076732;28;20520;-78
2023/08/04 03:26:11;;;;;;;6.53;3.60;;;;;;;;;;5077080;28;20487;-79
2023/08/04 03:28:46;;;;;;;9.70;4.00;;;;;;;;;;5079816;28;20667;-78
2023/08/04 03:31:14;;;;;;;7.23;4.20;;;;;;;;;;5077577;28;20852;-78
2023/08/04 03:33:41;;;;;;;16.93;4.73;;;;;;;;;;5076211;28;20503;-79
2023/08/04 03:36:08;;;;;;;5.37;3.63;;;;;;;;;;5073052;28;20908;-79
2023/08/04 03:38:36;;;;;;;6.00;3.50;;;;;;;;;;5074611;28;20464;-77
2023/08/04 03:41:05;;;;;;;8.90;3.80;;;;;;;;;;5073424;28;20465;-78
2023/08/04 03:43:32;;;;;;;9.10;4.07;;;;;;;;;;5074024;28;20495;-78
2023/08/04 03:46:05;;;;;;;6.60;4.00;;;;;;;;;;5074042;28;20511;-78
2023/08/04 03:48:35;;;;;;;6.13;3.10;;;;;;;;;;5074153;28;20464;-78
2023/08/04 03:51:06;;;;;;;14.17;5.17;;;;;;;;;;5076299;28;20475;-79
2023/08/04 03:53:37;;;;;;;10.57;3.90;;;;;;;;;;5073321;28;20539;-80
2023/08/04 03:56:07;;;;;;;6.00;3.57;;;;;;;;;;5076995;28;20494;-79
2023/08/04 03:58:36;;;;;;;11.90;3.77;;;;;;;;;;5076214;28;20476;-79
2023/08/04 04:01:03;;;;;;;8.87;3.77;;;;;;;;;;5073849;28;20732;-79
2023/08/04 04:03:31;;;;;;;12.23;4.00;;;;;;;;;;5074112;28;20513;-78
2023/08/04 04:05:58;;;;;;;6.53;3.67;;;;;;;;;;5071155;28;20510;-78
2023/08/04 04:08:26;;;;;;;6.50;3.93;;;;;;;;;;5072695;28;20768;-79
2023/08/04 04:10:55;;;;;;;8.50;3.10;;;;;;;;;;5079063;28;20440;-79
2023/08/04 04:13:24;;;;;;;6.80;3.40;;;;;;;;;;5073147;28;20482;-79
2023/08/04 04:15:52;;;;;;;8.57;3.77;;;;;;;;;;5071698;28;20512;-79
2023/08/04 04:18:19;;;;;;;5.17;3.53;;;;;;;;;;5072984;28;20509;-80
2023/08/04 04:20:47;;;;;;;8.63;4.37;;;;;;;;;;5072480;28;20464;-77
2023/08/04 04:23:14;;;;;;;9.80;3.77;;;;;;;;;;5068852;28;20488;-78
2023/08/04 04:25:42;;;;;;;8.37;3.80;;;;;;;;;;5072544;28;20544;-78
2023/08/04 04:28:10;;;;;;;17.67;3.93;;;;;;;;;;5075409;28;20871;-77
2023/08/04 04:30:39;;;;;;;11.00;3.90;;;;;;;;;;5074101;28;20576;-79
2023/08/04 04:33:07;;;;;;;4.83;3.07;;;;;;;;;;5073050;28;20504;-79
2023/08/04 04:35:34;;;;;;;7.63;3.07;;;;;;;;;;5072354;28;20505;-79
2023/08/04 04:38:01;;;;;;;6.70;3.17;;;;;;;;;;5076400;28;20861;-79
2023/08/04 04:40:29;;;;;;;12.33;3.63;;;;;;;;;;5075850;28;20456;-78
2023/08/04 04:42:56;;;;;;;7.77;3.33;;;;;;;;;;5074221;28;20452;-77
2023/08/04 04:45:24;;;;;;;8.63;2.97;;;;;;;;;;5079658;28;20473;-78
2023/08/04 04:47:53;;;;;;;7.50;4.10;;;;;;;;;;5078843;28;20557;-79
2023/08/04 04:50:21;;;;;;;8.50;3.20;;;;;;;;;;5083010;28;20453;-79
2023/08/04 04:52:49;;;;;;;5.73;3.00;;;;;;;;;;5079171;28;20512;-79
2023/08/04 04:55:16;;;;;;;7.00;3.60;;;;;;;;;;5082514;28;20520;-79
2023/08/04 04:57:44;;;;;;;9.27;2.93;;;;;;;;;;5082355;28;20441;-79
2023/08/04 05:00:15;;;;;;;9.70;3.63;;;;;;;;;;5083439;28;20453;-79
2023/08/04 05:02:42;;;;;;;6.50;3.27;;;;;;;;;;5083135;28;20555;-79
2023/08/04 05:05:11;;;;;;;7.97;2.90;;;;;;;;;;5079706;28;20460;-78
2023/08/04 05:07:39;;;;;;;8.87;3.10;;;;;;;;;;5078760;28;20884;-78
2023/08/04 05:10:07;;;;;;;7.80;3.27;;;;;;;;;;5080163;28;20448;-79
2023/08/04 05:12:37;;;;;;;7.20;2.30;;;;;;;;;;5080549;28;20452;-77
2023/08/04 05:15:05;;;;;;;5.20;3.10;;;;;;;;;;5085968;28;21208;-79
2023/08/04 05:17:33;;;;;;;7.90;3.23;;;;;;;;;;5088426;28;20782;-79
2023/08/04 05:20:08;;;;;;;4.63;2.60;;;;;;;;;;5085211;28;20445;-77
2023/08/04 05:22:36;;;;;;;8.50;2.63;;;;;;;;;;5085917;28;20491;-77
2023/08/04 05:25:04;;;;;;;7.43;2.33;;;;;;;;;;5087218;28;20467;-79
2023/08/04 05:27:31;;;;;;;5.27;2.87;;;;;;;;;;5085312;28;20444;-78
2023/08/04 05:30:00;;;;;;;6.73;3.07;;;;;;;;;;5080950;28;20868;-77
2023/08/04 05:32:28;;;;;;;6.90;2.90;;;;;;;;;;5081837;28;20464;-78
2023/08/04 05:34:56;;;;;;;6.97;2.80;;;;;;;;;;5079182;28;20504;-78
2023/08/04 05:37:23;;;;;;;5.57;3.40;;;;;;;;;;5080708;28;20884;-78
2023/08/04 05:39:52;;;;;;;8.80;3.47;;;;;;;;;;5077870;28;20429;-77
2023/08/04 05:42:19;;;;;;;5.37;2.73;;;;;;;;;;5079040;28;20460;-78
2023/08/04 05:44:47;;;;;;;6.73;3.10;;;;;;;;;;5079063;28;20486;-79
2023/08/04 05:47:16;;;;;;;7.10;3.27;;;;;;;;;;5081659;28;20449;-77
2023/08/04 05:49:45;;;;;;;4.63;2.70;;;;;;;;;;5079652;28;20927;-77
2023/08/04 05:52:17;;;;;;;4.50;2.30;;;;;;;;;;5084112;28;20452;-79
2023/08/04 05:54:45;;;;;;;7.27;2.90;;;;;;;;;;5066904;28;20497;-78
2023/08/04 05:57:14;;;;;;;8.93;2.47;;;;;;;;;;5064366;28;20505;-79
2023/08/04 05:59:41;;;;;;;4.47;1.83;;;;;;;;;;5062428;28;20861;-78
2023/08/04 06:02:09;;;;;;;7.73;2.80;;;;;;;;;;5064027;28;20547;-78
2023/08/04 06:04:36;;;;;;;4.50;2.20;;;;;;;;;;5067495;28;20524;-78
2023/08/04 06:07:04;;;;;;;6.83;2.50;;;;;;;;;;5074810;28;20453;-76
2023/08/04 06:09:32;;;;;;;5.43;2.43;;;;;;;;;;5056695;28;20524;-77
2023/08/04 06:11:59;;;;;;;5.00;2.00;;;;;;;;;;5072767;28;20924;-77
2023/08/04 06:14:28;;;;;;;7.43;2.53;;;;;;;;;;5083212;28;20663;-79
2023/08/04 06:16:56;;;;;;;5.00;2.53;;;;;;;;;;5083725;28;20444;-78
2023/08/04 06:19:23;;;;;;;13.00;3.07;;;;;;;;;;5082930;28;20515;-77
2023/08/04 06:21:51;;;;;;;5.00;2.23;;;;;;;;;;5081431;28;20528;-79
2023/08/04 06:24:27;;;;;;;8.50;1.73;;;;;;;;;;5079190;28;20693;-79
2023/08/04 06:26:54;;;;;;;4.10;2.10;;;;;;;;;;5080928;28;20440;-78
2023/08/04 06:29:22;;;;;;;4.67;1.90;;;;;;;;;;5080587;28;20448;-78
2023/08/04 06:31:51;;;;;;;4.53;2.17;;;;;;;;;;5080435;28;20487;-79
2023/08/04 06:34:18;;;;;;;5.77;2.17;;;;;;;;;;5079735;28;20421;-79
2023/08/04 06:36:47;;;;;;;6.17;1.90;;;;;;;;;;5075085;28;20481;-80
2023/08/04 06:39:14;;;;;;;7.17;2.70;;;;;;;;;;5063336;28;20457;-79
2023/08/04 06:41:43;;;;;;;6.37;2.10;;;;;;;;;;5088906;28;20620;-78
2023/08/04 06:44:11;;;;;;;4.63;2.53;;;;;;;;;;5075655;28;20538;-77
2023/08/04 06:46:38;;;;;;;6.00;2.63;;;;;;;;;;5072434;28;20471;-78
2023/08/04 06:49:07;;;;;;;5.03;2.37;;;;;;;;;;5069915;28;20497;-78
2023/08/04 06:51:35;;;;;;;4.80;2.03;;;;;;;;;;5063111;28;20461;-78
2023/08/04 06:54:03;;;;;;;3.43;2.00;;;;;;;;;;5073263;28;20472;-77
2023/08/04 06:56:30;;;;;;;3.53;1.70;;;;;;;;;;5080423;28;20585;-79
2023/08/04 06:58:58;;;;;;;7.63;2.40;;;;;;;;;;5070831;28;20463;-78
2023/08/04 07:01:27;;;;;;;8.83;2.83;;;;;;;;;;5078623;28;20464;-80
2023/08/04 07:03:54;;;;;;;5.90;2.53;;;;;;;;;;5073427;28;20467;-78
2023/08/04 07:06:23;;;;;;;6.97;2.93;;;;;;;;;;5079447;28;20484;-80
2023/08/04 07:08:51;;;;;;;9.93;4.17;;;;;;;;;;5068736;28;20452;-79
2023/08/04 07:11:19;;;;;;;9.30;2.50;;;;;;;;;;5086733;28;20445;-79
2023/08/04 07:13:46;;;;;;;4.47;2.53;;;;;;;;;;5080606;28;20452;-79
2023/08/04 07:16:14;;;;;;;6.60;2.57;;;;;;;;;;5080852;28;20488;-78
2023/08/04 07:18:41;;;;;;;5.60;2.57;;;;;;;;;;5081196;28;20508;-79
2023/08/04 07:21:10;;;;;;;7.23;3.13;;;;;;;;;;5081481;28;20456;-80
2023/08/04 07:23:40;;;;;;;8.07;4.53;;;;;;;;;;5075606;28;20564;-79
2023/08/04 07:26:08;;;;;;;8.17;3.07;;;;;;;;;;5075199;28;20457;-78
2023/08/04 07:28:37;;;;;;;6.10;2.80;;;;;;;;;;5082343;28;20436;-79
2023/08/04 07:31:08;;;;;;;9.47;2.90;;;;;;;;;;5083391;28;20460;-78
2023/08/04 07:33:36;;;;;;;6.57;2.93;;;;;;;;;;5083635;28;20503;-78
2023/08/04 07:36:04;;;;;;;6.10;2.53;;;;;;;;;;5080938;28;20697;-79
2023/08/04 07:38:32;;;;;;;7.30;3.33;;;;;;;;;;5071387;28;20458;-76
2023/08/04 07:41:02;;;;;;;4.33;2.70;;;;;;;;;;5078477;28;20454;-78
2023/08/04 07:43:30;;;;;;;12.07;5.10;;;;;;;;;;5074652;28;20441;-79
2023/08/04 07:45:57;;;;;;;6.33;2.40;;;;;;;;;;5076880;28;20578;-80
2023/08/04 07:48:25;;;;;;;4.70;2.90;;;;;;;;;;5080654;28;20825;-79
2023/08/04 07:50:58;;;;;;;8.27;3.40;;;;;;;;;;5079700;28;20495;-79
2023/08/04 07:53:26;;;;;;;16.23;4.80;;;;;;;;;;5079285;28;20473;-80
2023/08/04 07:55:57;;;;;;;4.67;2.23;;;;;;;;;;5081924;28;20480;-80
2023/08/04 07:58:26;;;;;;;8.83;3.53;;;;;;;;;;5089612;28;20455;-79
2023/08/04 08:00:53;;;;;;;6.20;3.80;;;;;;;;;;5079186;28;20484;-78
2023/08/04 08:03:21;;;;;;;3.93;3.07;;;;;;;;;;5075597;28;20523;-77
2023/08/04 08:05:48;;;;;;;6.33;2.60;;;;;;;;;;5058406;28;20527;-79
2023/08/04 08:08:18;;;;;;;5.20;2.80;;;;;;;;;;5063820;28;20900;-77
2023/08/04 08:10:46;;;;;;;6.67;2.70;;;;;;;;;;5063755;28;20460;-78
2023/08/04 08:13:13;;;;;;;12.00;2.60;;;;;;;;;;5072316;28;20474;-78
2023/08/04 08:15:42;;;;;;;7.83;2.50;;;;;;;;;;5065299;28;20503;-79
2023/08/04 08:18:10;;;;;;;5.00;2.67;;;;;;;;;;5078336;28;20448;-78
2023/08/04 08:20:40;;;;;;;5.30;2.57;;;;;;;;;;5078174;28;20468;-79
2023/08/04 08:23:08;;;;;;;5.20;2.50;;;;;;;;;;5079475;28;20683;-77
2023/08/04 08:25:36;;;;;;;4.37;2.47;;;;;;;;;;5064535;28;20487;-78
2023/08/04 08:28:05;;;;;;;5.47;2.47;;;;;;;;;;5058591;28;20457;-78
2023/08/04 08:30:33;;;;;;;3.93;2.23;;;;;;;;;;5079915;28;20449;-78
2023/08/04 08:33:02;;;;;;;3.43;2.20;;;;;;;;;;5077313;28;20476;-78
2023/08/04 08:35:31;;;;;;;3.50;1.93;;;;;;;;;;5079239;28;20451;-78
2023/08/04 08:37:59;;;;;;;5.20;2.10;;;;;;;;;;5060221;28;20461;-78
2023/08/04 08:40:27;;;;;;;6.03;2.63;;;;;;;;;;5075705;28;20492;-78
2023/08/04 08:42:56;;;;;;;7.80;5.47;;;;;;;;;;5061649;28;20471;-78
2023/08/04 08:45:28;;;;;;;5.50;2.93;;;;;;;;;;5061669;28;20445;-80
2023/08/04 08:47:56;;;;;;;3.57;2.20;;;;;;;;;;5060765;28;20453;-77
2023/08/04 08:50:26;;;;;;;4.60;2.10;;;;;;;;;;5066722;28;20468;-79
2023/08/04 08:53:00;;;;;;;4.30;1.93;;;;;;;;;;5062469;28;20483;-79
2023/08/04 08:55:28;;;;;;;3.57;2.27;;;;;;;;;;5060501;28;20806;-78
2023/08/04 08:57:57;;;;;;;4.87;2.40;;;;;;;;;;5061161;28;20446;-78
2023/08/04 09:00:25;;;;;;;6.60;2.40;;;;;;;;;;5060091;28;20468;-78
2023/08/04 09:02:53;;;;;;;6.27;2.20;;;;;;;;;;5060371;28;20453;-78
2023/08/04 09:05:21;;;;;;;4.00;2.23;;;;;;;;;;5061576;28;20881;-77
2023/08/04 09:07:51;;;;;;;3.20;2.10;;;;;;;;;;5061080;28;20452;-77
2023/08/04 09:10:19;;;;;;;3.70;2.30;;;;;;;;;;5071749;28;20471;-78
2023/08/04 09:12:49;;;;;;;5.93;1.70;;;;;;;;;;5059280;28;20679;-78
2023/08/04 09:15:18;;;;;;;6.87;1.77;;;;;;;;;;5059976;28;20701;-79
2023/08/04 09:17:46;;;;;;;2.57;1.40;;;;;;;;;;5058637;28;20920;-78
2023/08/04 09:20:28;;;;;;;2.93;2.13;;;;;;;;;;5061806;28;20445;-79
2023/08/04 09:22:59;;;;;;;7.40;2.33;;;;;;;;;;5061268;28;20643;-80
2023/08/04 09:25:27;;;;;;;8.97;1.93;;;;;;;;;;5061097;28;20453;-80
2023/08/04 09:27:56;;;;;;;4.60;1.70;;;;;;;;;;5060139;28;20483;-79
2023/08/04 09:30:24;;;;;;;5.33;1.70;;;;;;;;;;5064143;28;20442;-78
2023/08/04 09:32:52;;;;;;;2.90;1.57;;;;;;;;;;5060411;28;20495;-77
2023/08/04 09:35:20;;;;;;;4.80;2.47;;;;;;;;;;5062525;28;20520;-79
2023/08/04 09:37:47;;;;;;;5.80;1.90;;;;;;;;;;5064967;28;20485;-78
2023/08/04 09:40:19;;;;;;;3.73;1.97;;;;;;;;;;5059803;28;20457;-80
2023/08/04 09:42:50;;;;;;;3.60;1.73;;;;;;;;;;5072433;28;20532;-78
2023/08/04 09:45:22;;;;;;;4.03;2.03;;;;;;;;;;5077266;28;20441;-78
2023/08/04 09:47:53;;;;;;;6.20;2.23;;;;;;;;;;5078527;28;20437;-80
2023/08/04 09:50:21;;;;;;;3.97;2.00;;;;;;;;;;5081757;28;20445;-80
2023/08/04 09:52:49;;;;;;;3.50;2.20;;;;;;;;;;5077421;28;20460;-79
2023/08/04 09:55:18;;;;;;;4.97;3.17;;;;;;;;;;5080669;28;20478;-79
2023/08/04 09:57:47;;;;;;;4.27;2.40;;;;;;;;;;5078705;28;20488;-78
2023/08/04 10:00:18;;;;;;;4.40;2.03;;;;;;;;;;5066432;28;20445;-79
2023/08/04 10:02:46;;;;;;;4.10;2.07;;;;;;;;;;5061021;28;20459;-78
2023/08/04 10:05:14;;;;;;;4.43;2.10;;;;;;;;;;5064207;28;20473;-77
2023/08/04 10:07:42;;;;;;;4.17;2.00;;;;;;;;;;5060355;28;20489;-79
2023/08/04 10:10:10;;;;;;;4.87;2.10;;;;;;;;;;5063284;28;20446;-78
2023/08/04 10:12:40;;;;;;;6.00;2.50;;;;;;;;;;5062730;28;20491;-77
2023/08/04 10:15:09;;;;;;;5.33;2.03;;;;;;;;;;5082048;28;20464;-79
2023/08/04 10:17:37;;;;;;;3.73;2.27;;;;;;;;;;5082602;28;20530;-79
2023/08/04 10:20:08;;;;;;;4.20;2.33;;;;;;;;;;5071768;28;20450;-76
2023/08/04 10:22:36;;;;;;;3.70;1.80;;;;;;;;;;5063579;28;20883;-78
2023/08/04 10:25:13;;;;;;;5.30;1.90;;;;;;;;;;5084546;28;20533;-78
2023/08/04 10:27:49;;;;;;;3.27;1.80;;;;;;;;;;5073303;28;20484;-78
2023/08/04 10:30:18;;;;;;;5.00;2.20;;;;;;;;;;5066371;28;20449;-79
2023/08/04 10:32:47;;;;;;;2.53;1.63;;;;;;;;;;5065463;28;20548;-78
2023/08/04 10:35:18;;;;;;;3.47;2.20;;;;;;;;;;5069098;28;20576;-79
2023/08/04 10:37:46;;;;;;;3.47;1.83;;;;;;;;;;5063830;28;20501;-78
2023/08/04 10:40:30;;;;;;;4.13;1.77;;;;;;;;;;5074030;28;20446;-79
2023/08/04 10:43:04;;;;;;;3.00;1.80;;;;;;;;;;5065969;28;20897;-79
2023/08/04 10:46:03;;;;;;;6.07;2.37;;;;;;;;;;5086454;28;20444;-79
2023/08/04 10:48:39;;;;;;;4.00;1.30;;;;;;;;;;5022725;28;20483;-78
2023/08/04 10:51:09;;;;;;;4.10;1.30;;;;;;;;;;5065040;28;20694;-79
2023/08/04 10:53:37;;;;;;;2.70;1.10;;;;;;;;;;5062717;28;20453;-78
2023/08/04 10:56:06;;;;;;;6.70;2.17;;;;;;;;;;5062067;28;20453;-80
2023/08/04 10:58:36;;;;;;;3.63;1.50;;;;;;;;;;5064609;28;20465;-78
2023/08/04 11:01:04;;;;;;;3.30;1.40;;;;;;;;;;5060279;28;20597;-77
2023/08/04 11:03:36;;;;;;;6.60;2.23;;;;;;;;;;5077983;28;20482;-77
2023/08/04 11:06:05;;;;;;;3.47;1.30;;;;;;;;;;5080031;28;20532;-77
2023/08/04 11:08:35;;;;;;;4.10;1.67;;;;;;;;;;5082460;28;20463;-78
2023/08/04 11:11:05;;;;;;;2.83;1.17;;;;;;;;;;5086127;28;20448;-80
2023/08/04 11:13:33;;;;;;;3.57;1.23;;;;;;;;;;5065476;28;20750;-78
2023/08/04 11:16:05;;;;;;;5.70;1.37;;;;;;;;;;5062389;28;20479;-79
2023/08/04 11:18:32;;;;;;;2.87;1.17;;;;;;;;;;5064235;28;20536;-78
2023/08/04 11:21:01;;;;;;;5.30;1.20;;;;;;;;;;5060691;28;20461;-78
2023/08/04 11:23:30;;;;;;;2.57;1.00;;;;;;;;;;5075005;28;20687;-78
2023/08/04 11:25:58;;;;;;;4.40;1.10;;;;;;;;;;5081170;28;20452;-77
2023/08/04 11:28:26;;;;;;;5.10;1.47;;;;;;;;;;5079588;28;20452;-78
2023/08/04 11:31:02;;;;;;;2.53;1.10;;;;;;;;;;5080295;28;20518;-78
2023/08/04 11:33:31;;;;;;;4.30;1.90;;;;;;;;;;5079597;28;20549;-78
2023/08/04 11:35:59;;;;;;;2.23;0.90;;;;;;;;;;5054740;28;20458;-78
2023/08/04 11:38:27;;;;;;;3.67;1.20;;;;;;;;;;5050467;28;20574;-79
2023/08/04 11:40:58;;;;;;;2.40;1.00;;;;;;;;;;5058728;28;20453;-79
2023/08/04 11:43:32;;;;;;;3.73;1.40;;;;;;;;;;5046879;28;20453;-79
2023/08/04 11:46:00;;;;;;;3.27;1.93;;;;;;;;;;5058072;28;20821;-80
2023/08/04 11:48:28;;;;;;;2.63;0.80;;;;;;;;;;5058844;28;20469;-77
2023/08/04 11:50:57;;;;;;;3.20;1.20;;;;;;;;;;5060473;28;20457;-77
2023/08/04 11:53:25;;;;;;;3.17;0.93;;;;;;;;;;5057644;28;20469;-77
2023/08/04 11:56:01;;;;;;;3.30;1.13;;;;;;;;;;5057807;28;20511;-78
2023/08/04 11:58:33;;;;;;;2.37;0.60;;;;;;;;;;5055659;28;20530;-77
2023/08/04 12:01:02;;;;;;;5.30;1.00;;;;;;;;;;5049738;28;20470;-77
2023/08/04 12:03:46;;;;;;;2.90;0.97;;;;;;;;;;5038437;28;20442;-78
2023/08/04 12:06:19;;;;;;;3.20;1.30;;;;;;;;;;5056560;28;20515;-78
2023/08/04 12:08:54;;;;;;;2.73;0.80;;;;;;;;;;5056470;28;20537;-79
2023/08/04 12:11:22;;;;;;;2.30;0.80;;;;;;;;;;5051126;28;20491;-77
2023/08/04 12:13:51;;;;;;;2.30;0.77;;;;;;;;;;5039458;28;20465;-78
2023/08/04 12:16:18;;;;;;;2.93;0.83;;;;;;;;;;5050303;28;20565;-79
2023/08/04 12:18:47;;;;;;;2.80;1.20;;;;;;;;;;5040153;28;20484;-79
2023/08/04 12:21:17;;;;;;;2.10;0.90;;;;;;;;;;5056711;28;20489;-78
2023/08/04 12:23:50;;;;;;;2.70;0.70;;;;;;;;;;5053873;28;20484;-78
2023/08/04 12:26:30;;;;;;;2.10;1.10;;;;;;;;;;5051909;28;20457;-79
2023/08/04 12:29:02;;;;;;;2.07;0.80;;;;;;;;;;5046847;28;20456;-78
2023/08/04 12:31:30;;;;;;;2.77;0.83;;;;;;;;;;5047684;28;20467;-79
2023/08/04 12:33:57;;;;;;;5.23;1.40;;;;;;;;;;5055513;28;20480;-78
2023/08/04 12:36:25;;;;;;;4.30;3.03;;;;;;;;;;5064036;28;20726;-78
2023/08/04 12:38:54;;;;;;;3.20;1.43;;;;;;;;;;5061026;28;20554;-76
2023/08/04 12:41:22;;;;;;;2.00;0.87;;;;;;;;;;5064034;28;20488;-80
2023/08/04 12:43:49;;;;;;;2.90;1.00;;;;;;;;;;5064213;28;20509;-77
2023/08/04 12:46:17;;;;;;;2.80;1.20;;;;;;;;;;5062620;28;20687;-79
2023/08/04 12:48:44;;;;;;;2.70;1.20;;;;;;;;;;5063716;28;20452;-78
2023/08/04 12:51:12;;;;;;;2.30;0.70;;;;;;;;;;5068317;28;20677;-77
2023/08/04 12:53:39;;;;;;;1.90;0.90;;;;;;;;;;5071825;28;20478;-77
2023/08/04 12:56:09;;;;;;;3.00;1.70;;;;;;;;;;5066449;28;20447;-77
2023/08/04 12:58:40;;;;;;;4.77;3.03;;;;;;;;;;5063218;28;20477;-77
2023/08/04 13:01:09;;;;;;;1.73;0.83;;;;;;;;;;5066860;28;20576;-76
2023/08/04 13:03:37;;;;;;;1.80;0.90;;;;;;;;;;5081815;28;20472;-78
2023/08/04 13:06:05;;;;;;;1.60;0.80;;;;;;;;;;5070545;28;20459;-78
2023/08/04 13:08:33;;;;;;;1.73;0.90;;;;;;;;;;5075265;28;20456;-78
2023/08/04 13:11:00;;;;;;;2.60;0.93;;;;;;;;;;5067091;28;20750;-77
2023/08/04 13:13:30;;;;;;;2.53;0.90;;;;;;;;;;5068580;28;20969;-76
2023/08/04 13:15:57;;;;;;;2.40;0.70;;;;;;;;;;5059126;28;20488;-77
2023/08/04 13:18:25;;;;;;;2.40;0.90;;;;;;;;;;5069568;28;21025;-77
2023/08/04 13:20:53;;;;;;;3.87;2.00;;;;;;;;;;5063329;28;20465;-77
2023/08/04 13:23:20;;;;;;;2.70;1.07;;;;;;;;;;5071913;28;20453;-77
2023/08/04 13:25:48;;;;;;;4.50;1.90;;;;;;;;;;5059335;28;20530;-78
2023/08/04 13:28:15;;;;;;;3.20;1.40;;;;;;;;;;5057779;28;20453;-77
2023/08/04 13:30:45;;;;;;;3.13;0.90;;;;;;;;;;5057571;28;20453;-77
2023/08/04 13:33:13;;;;;;;2.70;1.00;;;;;;;;;;5074730;28;20473;-78
2023/08/04 13:35:44;;;;;;;2.70;2.03;;;;;;;;;;5083295;28;20484;-79
2023/08/04 13:38:13;;;;;;;4.23;1.23;;;;;;;;;;5085841;28;20480;-78
2023/08/04 13:40:40;;;;;;;4.40;1.00;;;;;;;;;;5084178;28;20531;-79
2023/08/04 13:43:08;;;;;;;2.30;1.33;;;;;;;;;;5081068;28;20448;-79
2023/08/04 13:45:39;;;;;;;2.77;1.23;;;;;;;;;;5080402;28;20613;-79
2023/08/04 13:48:09;;;;;;;2.80;1.20;;;;;;;;;;5061032;28;20446;-79
2023/08/04 13:50:37;;;;;;;2.53;1.07;;;;;;;;;;5067152;28;20452;-77
2023/08/04 13:53:05;;;;;;;2.17;0.70;;;;;;;;;;5082100;28;20452;-78
2023/08/04 13:55:37;;;;;;;2.73;1.07;;;;;;;;;;5079333;28;20463;-78
2023/08/04 14:00:47;;;;;;;3.13;1.43;;;;;;;;;;5075760;28;20512;-79
2023/08/04 14:03:16;;;;;;;3.70;1.20;;;;;;;;;;5069192;28;20469;-79
2023/08/04 14:05:43;;;;;;;2.30;1.00;;;;;;;;;;5057404;28;20457;-78
2023/08/04 14:08:11;;;;;;;2.07;0.90;;;;;;;;;;5067573;28;20495;-78
2023/08/04 14:10:51;;;;;;;4.33;1.57;;;;;;;;;;5067905;28;20464;-78
2023/08/04 14:13:21;;;;;;;2.93;1.10;;;;;;;;;;5071385;28;20571;-77
2023/08/04 14:15:58;;;;;;;3.37;1.13;;;;;;;;;;5082528;28;20448;-78
2023/08/04 14:18:29;;;;;;;1.60;0.97;;;;;;;;;;5080965;28;20476;-79
2023/08/04 14:21:02;;;;;;;2.87;0.90;;;;;;;;;;5077129;28;20463;-77
2023/08/04 14:23:30;;;;;;;2.10;0.80;;;;;;;;;;5072273;28;20935;-77
2023/08/04 14:25:58;;;;;;;2.00;1.10;;;;;;;;;;5075562;28;20502;-78
2023/08/04 14:28:33;;;;;;;2.33;1.13;;;;;;;;;;5078120;28;20525;-78
2023/08/04 14:31:01;;;;;;;2.73;1.27;;;;;;;;;;5076008;28;20452;-76
2023/08/04 14:33:31;;;;;;;3.07;1.20;;;;;;;;;;5064304;28;20527;-78
2023/08/04 14:35:58;;;;;;;3.10;0.97;;;;;;;;;;5080168;28;20510;-77
2023/08/04 14:38:26;;;;;;;3.60;1.10;;;;;;;;;;5074896;28;20480;-79
2023/08/04 14:40:53;;;;;;;3.60;0.80;;;;;;;;;;5065558;28;20456;-79
2023/08/04 14:43:21;;;;;;;3.90;1.43;;;;;;;;;;5083403;28;20456;-79
2023/08/04 14:45:51;;;;;;;2.67;1.23;;;;;;;;;;5085616;28;20461;-80
2023/08/04 14:48:21;;;;;;;2.10;1.00;;;;;;;;;;5070617;28;21116;-81
2023/08/04 14:50:51;;;;;;;2.50;1.27;;;;;;;;;;5080505;28;20496;-78
2023/08/04 14:53:23;;;;;;;2.33;1.10;;;;;;;;;;5080375;28;20452;-80